createdAt,value
2022-10-30T00:00:43.291Z,13.56
2022-10-30T00:03:13.495Z,13.57
2022-10-30T00:05:46.454Z,13.56
2022-10-30T00:08:15.612Z,13.57
2022-10-30T00:10:44.441Z,13.55
2022-10-30T00:13:12.850Z,13.52
2022-10-30T00:15:40.568Z,13.57
2022-10-30T00:18:07.867Z,13.48
2022-10-30T00:20:37.520Z,13.46
2022-10-30T00:23:05.660Z,13.43
2022-10-30T00:25:34.505Z,13.39
2022-10-30T00:28:02.577Z,13.44
2022-10-30T00:30:29.907Z,13.43
2022-10-30T00:32:58.043Z,13.37
2022-10-30T00:35:25.484Z,13.37
2022-10-30T00:37:52.884Z,13.38
2022-10-30T00:40:20.808Z,13.41
2022-10-30T00:42:48.808Z,13.38
2022-10-30T00:45:17.530Z,13.34
2022-10-30T00:48:00.671Z,13.36
2022-10-30T00:50:34.277Z,13.42
2022-10-30T00:53:12.660Z,13.40
2022-10-30T00:56:02.598Z,13.39
2022-10-30T00:58:44.973Z,13.40
2022-10-30T01:01:20.122Z,13.40
2022-10-30T01:03:50.467Z,13.38
2022-10-30T01:06:19.347Z,13.37
2022-10-30T01:08:47.630Z,13.32
2022-10-30T01:11:15.246Z,13.39
2022-10-30T01:13:47.021Z,13.33
2022-10-30T01:16:34.313Z,13.35
2022-10-30T01:19:20.821Z,13.25
2022-10-30T01:22:09.950Z,13.22
2022-10-30T01:24:49.456Z,13.14
2022-10-30T01:27:40.171Z,13.12
2022-10-30T01:30:35.962Z,13.09
2022-10-30T01:33:06.116Z,13.11
2022-10-30T01:35:44.161Z,13.05
2022-10-30T01:38:18.501Z,13.01
2022-10-30T01:40:48.362Z,12.97
2022-10-30T01:43:15.998Z,12.93
2022-10-30T01:46:01.955Z,12.91
2022-10-30T01:48:53.868Z,12.89
2022-10-30T01:51:27.358Z,12.89
2022-10-30T01:54:00.747Z,12.88
2022-10-30T01:56:49.621Z,12.85
2022-10-30T01:59:35.093Z,12.95
2022-10-30T02:02:02.953Z,12.90
2022-10-30T02:04:32.305Z,12.87
2022-10-30T02:06:59.713Z,12.87
2022-10-30T02:09:27.225Z,12.96
2022-10-30T02:11:55.578Z,12.88
2022-10-30T02:14:35.163Z,12.88
2022-10-30T02:17:08.091Z,12.92
2022-10-30T02:19:35.903Z,12.86
2022-10-30T02:22:04.261Z,12.84
2022-10-30T02:24:33.343Z,12.88
2022-10-30T02:27:00.704Z,12.87
2022-10-30T02:29:28.182Z,12.84
2022-10-30T02:31:55.597Z,12.81
2022-10-30T02:34:23.197Z,12.76
2022-10-30T02:36:50.539Z,12.77
2022-10-30T02:39:20.111Z,12.72
2022-10-30T02:41:48.576Z,12.75
2022-10-30T02:44:15.947Z,12.75
2022-10-30T02:46:43.275Z,12.71
2022-10-30T02:49:11.125Z,12.73
2022-10-30T02:51:38.416Z,12.77
2022-10-30T02:54:05.909Z,12.82
2022-10-30T02:56:33.428Z,12.82
2022-10-30T02:59:01.238Z,12.83
2022-10-30T03:01:29.112Z,12.83
2022-10-30T03:03:58.915Z,12.82
2022-10-30T03:06:26.274Z,12.85
2022-10-30T03:08:53.624Z,12.85
2022-10-30T03:11:21.733Z,12.88
2022-10-30T03:13:49.759Z,12.89
2022-10-30T03:16:23.499Z,12.88
2022-10-30T03:18:51.946Z,12.92
2022-10-30T03:21:21.632Z,12.93
2022-10-30T03:23:50.671Z,12.97
2022-10-30T03:26:19.354Z,12.97
2022-10-30T03:28:56.740Z,12.96
2022-10-30T03:31:24.139Z,12.96
2022-10-30T03:34:08.357Z,13.02
2022-10-30T03:36:35.822Z,13.06
2022-10-30T03:39:03.492Z,13.02
2022-10-30T03:41:32.749Z,13.03
2022-10-30T03:44:00.304Z,12.64
2022-10-30T03:46:28.054Z,13.02
2022-10-30T03:49:03.648Z,13.07
2022-10-30T03:51:31.021Z,13.06
2022-10-30T03:53:58.930Z,13.08
2022-10-30T03:56:28.048Z,13.11
2022-10-30T03:58:59.440Z,13.10
2022-10-30T04:01:27.043Z,13.10
2022-10-30T04:03:57.591Z,13.10
2022-10-30T04:06:26.262Z,13.10
2022-10-30T04:08:55.443Z,13.08
2022-10-30T04:11:24.169Z,13.07
2022-10-30T04:13:51.636Z,13.03
2022-10-30T04:16:18.948Z,12.99
2022-10-30T04:18:46.322Z,12.99
2022-10-30T04:21:13.659Z,12.98
2022-10-30T04:23:41.139Z,13.00
2022-10-30T04:26:09.941Z,13.00
2022-10-30T04:28:40.486Z,13.02
2022-10-30T04:31:08.624Z,12.98
2022-10-30T04:33:36.327Z,12.99
2022-10-30T04:36:03.865Z,12.99
2022-10-30T04:38:32.472Z,12.60
2022-10-30T04:41:00.996Z,13.02
2022-10-30T04:43:43.263Z,13.02
2022-10-30T04:46:10.658Z,13.03
2022-10-30T04:48:39.130Z,13.02
2022-10-30T04:51:07.164Z,13.00
2022-10-30T04:53:34.496Z,12.94
2022-10-30T04:56:07.257Z,12.92
2022-10-30T04:58:34.648Z,12.97
2022-10-30T05:01:07.625Z,12.91
2022-10-30T05:03:36.364Z,12.87
2022-10-30T05:06:16.721Z,12.84
2022-10-30T05:08:44.045Z,12.82
2022-10-30T05:11:22.976Z,12.78
2022-10-30T05:13:50.403Z,12.72
2022-10-30T05:16:18.264Z,12.72
2022-10-30T05:18:45.650Z,12.71
2022-10-30T05:21:13.373Z,12.70
2022-10-30T05:23:40.836Z,12.68
2022-10-30T05:26:08.396Z,12.73
2022-10-30T05:28:35.961Z,12.72
2022-10-30T05:31:04.674Z,12.71
2022-10-30T05:34:07.262Z,12.71
2022-10-30T05:36:37.514Z,12.71
2022-10-30T05:39:05.318Z,12.73
2022-10-30T05:41:37.992Z,12.71
2022-10-30T05:44:05.697Z,12.71
2022-10-30T05:46:34.083Z,12.75
2022-10-30T05:49:18.077Z,12.79
2022-10-30T05:51:45.791Z,12.77
2022-10-30T05:54:13.199Z,12.82
2022-10-30T05:56:53.444Z,12.80
2022-10-30T05:59:21.037Z,12.83
2022-10-30T06:01:48.371Z,12.88
2022-10-30T06:04:15.820Z,12.92
2022-10-30T06:06:43.688Z,12.93
2022-10-30T06:09:11.031Z,12.99
2022-10-30T06:12:03.719Z,13.02
2022-10-30T06:14:57.081Z,13.05
2022-10-30T06:17:25.610Z,13.11
2022-10-30T06:20:01.191Z,13.15
2022-10-30T06:22:55.674Z,13.19
2022-10-30T06:25:26.996Z,13.24
2022-10-30T06:28:01.920Z,13.26
2022-10-30T06:30:31.571Z,13.26
2022-10-30T06:33:04.086Z,13.27
2022-10-30T06:35:32.673Z,13.31
2022-10-30T06:38:01.184Z,13.33
2022-10-30T06:40:31.031Z,13.38
2022-10-30T06:43:37.225Z,13.45
2022-10-30T06:46:09.892Z,13.53
2022-10-30T06:48:40.742Z,13.57
2022-10-30T06:51:08.278Z,13.63
2022-10-30T06:53:38.943Z,13.70
2022-10-30T06:56:29.388Z,13.80
2022-10-30T06:59:29.127Z,13.79
2022-10-30T07:02:28.557Z,13.88
2022-10-30T07:04:59.432Z,13.94
2022-10-30T07:07:26.984Z,13.94
2022-10-30T07:09:54.382Z,13.94
2022-10-30T07:12:30.341Z,14.00
2022-10-30T07:15:01.725Z,13.96
2022-10-30T07:17:43.781Z,13.91
2022-10-30T07:20:23.165Z,13.94
2022-10-30T07:22:51.044Z,13.94
2022-10-30T07:25:19.387Z,13.93
2022-10-30T07:27:58.128Z,14.03
2022-10-30T07:30:48.590Z,14.04
2022-10-30T07:33:27.187Z,14.07
2022-10-30T07:36:04.035Z,14.07
2022-10-30T07:38:52.219Z,14.18
2022-10-30T07:41:28.959Z,14.25
2022-10-30T07:44:15.100Z,14.30
2022-10-30T07:46:47.680Z,14.41
2022-10-30T07:49:45.407Z,14.48
2022-10-30T07:52:17.186Z,14.58
2022-10-30T07:54:46.924Z,14.66
2022-10-30T07:57:39.431Z,14.70
2022-10-30T08:00:29.649Z,14.80
2022-10-30T08:03:12.610Z,14.83
2022-10-30T08:06:06.080Z,14.89
2022-10-30T08:08:39.094Z,14.94
2022-10-30T08:11:25.413Z,14.96
2022-10-30T08:13:54.230Z,15.00
2022-10-30T08:16:21.687Z,14.98
2022-10-30T08:18:51.104Z,15.03
2022-10-30T08:21:21.361Z,15.00
2022-10-30T08:24:07.294Z,14.97
2022-10-30T08:26:35.628Z,14.98
2022-10-30T08:29:03.934Z,15.02
2022-10-30T08:31:31.796Z,15.06
2022-10-30T08:34:01.992Z,15.02
2022-10-30T08:36:40.792Z,14.70
2022-10-30T08:39:09.333Z,15.19
2022-10-30T08:41:45.095Z,15.22
2022-10-30T08:44:12.777Z,15.29
2022-10-30T08:47:00.348Z,15.39
2022-10-30T08:49:28.082Z,15.48
2022-10-30T08:51:58.231Z,15.55
2022-10-30T08:54:26.742Z,15.67
2022-10-30T08:56:55.291Z,15.75
2022-10-30T08:59:23.977Z,15.52
2022-10-30T09:01:54.190Z,15.97
2022-10-30T09:04:21.792Z,16.04
2022-10-30T09:07:10.338Z,16.16
2022-10-30T09:09:59.082Z,16.29
2022-10-30T09:12:30.351Z,16.39
2022-10-30T09:14:57.746Z,16.48
2022-10-30T09:17:25.742Z,16.58
2022-10-30T09:19:54.567Z,16.67
2022-10-30T09:22:32.990Z,16.79
2022-10-30T09:25:00.679Z,16.94
2022-10-30T09:27:47.130Z,17.14
2022-10-30T09:30:17.973Z,17.21
2022-10-30T09:32:59.317Z,17.27
2022-10-30T09:35:46.843Z,17.43
2022-10-30T09:38:15.125Z,17.60
2022-10-30T09:41:13.677Z,17.75
2022-10-30T09:43:53.787Z,17.86
2022-10-30T09:47:11.647Z,17.97
2022-10-30T09:50:01.706Z,18.23
2022-10-30T09:53:02.562Z,19.02
2022-10-30T09:55:36.796Z,20.33
2022-10-30T09:58:10.000Z,21.56
2022-10-30T10:00:39.908Z,22.60
2022-10-30T10:03:34.532Z,23.32
2022-10-30T10:06:24.363Z,24.12
2022-10-30T10:09:20.823Z,23.71
2022-10-30T10:12:13.436Z,23.04
2022-10-30T10:14:47.134Z,22.89
2022-10-30T10:17:24.317Z,22.82
2022-10-30T10:19:59.597Z,23.79
2022-10-30T10:22:42.427Z,24.70
2022-10-30T10:25:16.933Z,25.96
2022-10-30T10:28:03.185Z,26.80
2022-10-30T10:30:52.009Z,26.35
2022-10-30T10:34:00.245Z,25.98
2022-10-30T10:37:08.470Z,27.17
2022-10-30T10:39:42.744Z,28.20
2022-10-30T10:42:20.215Z,28.69
2022-10-30T10:45:02.525Z,29.25
2022-10-30T10:47:36.235Z,28.45
2022-10-30T10:50:25.536Z,27.71
2022-10-30T10:53:18.845Z,28.61
2022-10-30T10:55:51.351Z,29.05
2022-10-30T10:58:39.270Z,28.34
2022-10-30T11:01:14.122Z,26.81
2022-10-30T11:03:57.612Z,25.54
2022-10-30T11:06:35.055Z,24.82
2022-10-30T11:09:23.122Z,25.85
2022-10-30T11:11:52.688Z,27.64
2022-10-30T11:14:23.432Z,29.09
2022-10-30T11:17:09.397Z,30.10
2022-10-30T11:19:36.786Z,30.80
2022-10-30T11:22:17.087Z,30.99
2022-10-30T11:24:44.506Z,30.91
2022-10-30T11:27:24.148Z,30.81
2022-10-30T11:30:02.531Z,30.65
2022-10-30T11:32:32.973Z,30.58
2022-10-30T11:35:02.946Z,30.48
2022-10-30T11:37:32.793Z,30.23
2022-10-30T11:40:07.268Z,29.94
2022-10-30T11:42:36.162Z,29.98
2022-10-30T11:45:04.770Z,30.41
2022-10-30T11:47:37.959Z,30.67
2022-10-30T11:50:30.149Z,30.81
2022-10-30T11:53:10.447Z,31.22
2022-10-30T11:55:46.558Z,31.41
2022-10-30T11:58:33.721Z,31.03
2022-10-30T12:01:13.612Z,30.95
2022-10-30T12:03:42.490Z,30.79
2022-10-30T12:06:39.069Z,30.74
2022-10-30T12:09:23.192Z,30.57
2022-10-30T12:11:50.898Z,30.26
2022-10-30T12:14:24.934Z,30.15
2022-10-30T12:16:55.188Z,29.58
2022-10-30T12:19:26.348Z,28.20
2022-10-30T12:21:58.531Z,26.70
2022-10-30T12:24:37.865Z,26.11
2022-10-30T12:27:13.978Z,25.37
2022-10-30T12:30:07.356Z,24.59
2022-10-30T12:32:51.276Z,24.15
2022-10-30T12:35:42.972Z,23.85
2022-10-30T12:38:18.174Z,23.57
2022-10-30T12:41:04.075Z,23.35
2022-10-30T12:43:35.037Z,23.06
2022-10-30T12:46:24.440Z,22.82
2022-10-30T12:49:03.313Z,22.77
2022-10-30T12:51:38.828Z,22.67
2022-10-30T12:54:30.955Z,22.51
2022-10-30T12:57:10.746Z,22.43
2022-10-30T12:59:55.339Z,22.35
2022-10-30T13:03:02.193Z,22.29
2022-10-30T13:05:35.609Z,22.21
2022-10-30T13:08:20.753Z,22.12
2022-10-30T13:10:53.000Z,21.97
2022-10-30T13:13:29.882Z,22.00
2022-10-30T13:15:59.221Z,22.07
2022-10-30T13:18:27.355Z,22.07
2022-10-30T13:21:22.603Z,21.95
2022-10-30T13:24:01.449Z,21.86
2022-10-30T13:26:56.126Z,21.80
2022-10-30T13:29:48.589Z,21.66
2022-10-30T13:33:03.746Z,21.57
2022-10-30T13:35:44.147Z,21.53
2022-10-30T13:38:20.616Z,21.51
2022-10-30T13:40:58.724Z,21.55
2022-10-30T13:43:49.869Z,21.54
2022-10-30T13:46:26.165Z,21.48
2022-10-30T13:49:03.819Z,21.42
2022-10-30T13:51:42.452Z,21.35
2022-10-30T13:54:24.659Z,21.28
2022-10-30T13:56:53.344Z,21.22
2022-10-30T13:59:47.635Z,21.15
2022-10-30T14:02:33.142Z,21.10
2022-10-30T14:05:16.328Z,21.00
2022-10-30T14:07:50.481Z,20.93
2022-10-30T14:10:25.706Z,20.89
2022-10-30T14:13:07.368Z,20.86
2022-10-30T14:15:43.218Z,20.73
2022-10-30T14:18:13.552Z,20.74
2022-10-30T14:21:21.089Z,20.61
2022-10-30T14:23:48.497Z,20.53
2022-10-30T14:26:21.583Z,20.46
2022-10-30T14:28:51.270Z,20.39
2022-10-30T14:31:32.114Z,20.29
2022-10-30T14:34:00.385Z,20.20
2022-10-30T14:36:40.182Z,20.14
2022-10-30T14:39:10.769Z,19.99
2022-10-30T14:42:13.134Z,19.97
2022-10-30T14:45:13.415Z,19.87
2022-10-30T14:48:00.152Z,19.73
2022-10-30T14:50:27.515Z,19.64
2022-10-30T14:53:22.540Z,19.53
2022-10-30T14:56:26.694Z,19.44
2022-10-30T14:59:21.406Z,19.37
2022-10-30T15:01:52.723Z,19.28
2022-10-30T15:04:49.802Z,19.22
2022-10-30T15:07:45.263Z,19.11
2022-10-30T15:10:31.345Z,19.01
2022-10-30T15:13:08.082Z,18.93
2022-10-30T15:15:36.086Z,18.89
2022-10-30T15:18:20.493Z,18.81
2022-10-30T15:20:55.572Z,18.71
2022-10-30T15:23:29.776Z,18.61
2022-10-30T15:26:06.444Z,18.53
2022-10-30T15:28:38.807Z,18.45
2022-10-30T15:31:24.062Z,18.35
2022-10-30T15:33:54.198Z,18.29
2022-10-30T15:36:35.029Z,18.22
2022-10-30T15:39:12.763Z,18.13
2022-10-30T15:41:57.128Z,18.03
2022-10-30T15:44:29.456Z,17.98
2022-10-30T15:47:00.972Z,17.90
2022-10-30T15:49:36.496Z,17.80
2022-10-30T15:52:14.060Z,17.79
2022-10-30T15:54:44.066Z,17.67
2022-10-30T15:58:02.429Z,17.58
2022-10-30T16:00:36.775Z,17.16
2022-10-30T16:03:16.020Z,17.50
2022-10-30T16:05:43.716Z,17.50
2022-10-30T16:08:22.589Z,17.40
2022-10-30T16:10:54.365Z,17.35
2022-10-30T16:13:29.860Z,17.29
2022-10-30T16:15:57.450Z,17.24
2022-10-30T16:18:30.587Z,17.16
2022-10-30T16:21:08.513Z,17.12
2022-10-30T16:23:41.457Z,16.99
2022-10-30T16:26:30.023Z,16.93
2022-10-30T16:28:59.121Z,16.92
2022-10-30T16:31:33.182Z,16.84
2022-10-30T16:34:02.118Z,16.79
2022-10-30T16:36:30.544Z,16.67
2022-10-30T16:38:58.663Z,16.63
2022-10-30T16:41:28.361Z,16.56
2022-10-30T16:44:15.093Z,16.55
2022-10-30T16:46:48.125Z,16.45
2022-10-30T16:49:22.489Z,16.41
2022-10-30T16:51:58.704Z,16.35
2022-10-30T16:54:38.908Z,16.27
2022-10-30T16:57:27.119Z,16.19
2022-10-30T16:59:56.194Z,16.13
2022-10-30T17:02:29.297Z,16.14
2022-10-30T17:05:08.444Z,16.06
2022-10-30T17:07:37.098Z,16.02
2022-10-30T17:10:41.942Z,15.97
2022-10-30T17:13:34.378Z,15.94
2022-10-30T17:16:25.667Z,15.90
2022-10-30T17:18:55.163Z,15.87
2022-10-30T17:21:42.099Z,15.83
2022-10-30T17:24:29.041Z,15.70
2022-10-30T17:26:58.483Z,15.71
2022-10-30T17:29:52.709Z,15.69
2022-10-30T17:32:25.556Z,15.65
2022-10-30T17:35:14.810Z,15.57
2022-10-30T17:37:42.522Z,15.60
2022-10-30T17:40:10.912Z,15.53
2022-10-30T17:42:38.857Z,15.52
2022-10-30T17:45:10.328Z,15.47
2022-10-30T17:47:38.002Z,15.40
2022-10-30T17:50:06.315Z,15.35
2022-10-30T17:52:34.801Z,15.34
2022-10-30T17:55:02.848Z,15.29
2022-10-30T17:57:30.180Z,15.27
2022-10-30T17:59:57.605Z,15.23
2022-10-30T18:02:25.082Z,15.20
2022-10-30T18:04:54.941Z,15.14
2022-10-30T18:07:22.514Z,15.12
2022-10-30T18:09:49.849Z,15.09
2022-10-30T18:12:19.174Z,15.10
2022-10-30T18:14:46.635Z,15.07
2022-10-30T18:17:13.994Z,15.05
2022-10-30T18:19:41.268Z,15.02
2022-10-30T18:22:10.363Z,15.02
2022-10-30T18:24:37.741Z,15.01
2022-10-30T18:27:05.160Z,14.94
2022-10-30T18:29:32.669Z,14.94
2022-10-30T18:32:00.924Z,14.86
2022-10-30T18:34:29.702Z,14.81
2022-10-30T18:36:57.179Z,14.75
2022-10-30T18:39:24.636Z,14.69
2022-10-30T18:41:52.065Z,14.69
2022-10-30T18:44:24.260Z,14.61
2022-10-30T18:46:51.581Z,14.62
2022-10-30T18:49:23.088Z,14.61
2022-10-30T18:51:50.665Z,14.63
2022-10-30T18:54:18.106Z,14.58
2022-10-30T18:56:47.205Z,14.48
2022-10-30T18:59:14.564Z,14.41
2022-10-30T19:01:42.403Z,14.39
2022-10-30T19:04:11.009Z,14.36
2022-10-30T19:06:39.198Z,14.31
2022-10-30T19:09:07.138Z,14.28
2022-10-30T19:11:36.348Z,14.26
2022-10-30T19:14:13.635Z,14.23
2022-10-30T19:16:41.202Z,14.21
2022-10-30T19:19:08.691Z,14.18
2022-10-30T19:21:36.741Z,14.11
2022-10-30T19:24:09.044Z,14.09
2022-10-30T19:26:36.462Z,14.03
2022-10-30T19:29:03.871Z,14.00
2022-10-30T19:31:31.473Z,14.03
2022-10-30T19:33:58.824Z,14.00
2022-10-30T19:36:36.273Z,13.96
2022-10-30T19:39:10.281Z,13.84
2022-10-30T19:41:38.950Z,13.84
2022-10-30T19:44:06.805Z,13.81
2022-10-30T19:46:34.632Z,13.81
2022-10-30T19:49:12.584Z,13.77
2022-10-30T19:51:39.945Z,13.74
2022-10-30T19:54:07.379Z,13.74
2022-10-30T19:56:34.789Z,13.69
2022-10-30T19:59:02.234Z,13.69
2022-10-30T20:01:29.690Z,13.65
2022-10-30T20:03:57.157Z,13.67
2022-10-30T20:06:24.555Z,13.64
2022-10-30T20:08:51.874Z,13.62
2022-10-30T20:11:19.234Z,13.60
2022-10-30T20:13:49.359Z,13.55
2022-10-30T20:16:19.533Z,13.46
2022-10-30T20:18:46.845Z,13.45
2022-10-30T20:21:14.473Z,13.43
2022-10-30T20:23:42.101Z,13.48
2022-10-30T20:26:29.440Z,13.49
2022-10-30T20:28:58.798Z,13.46
2022-10-30T20:31:26.189Z,13.37
2022-10-30T20:33:53.624Z,13.34
2022-10-30T20:36:20.937Z,13.30
2022-10-30T20:38:48.314Z,13.33
2022-10-30T20:41:25.244Z,13.24
2022-10-30T20:43:52.846Z,13.20
2022-10-30T20:46:20.860Z,13.18
2022-10-30T20:48:48.415Z,13.17
2022-10-30T20:51:15.966Z,13.14
2022-10-30T20:53:43.345Z,13.13
2022-10-30T20:56:11.671Z,13.10
2022-10-30T20:58:41.234Z,13.08
2022-10-30T21:01:09.122Z,13.04
2022-10-30T21:03:36.471Z,13.05
2022-10-30T21:06:04.230Z,13.05
2022-10-30T21:08:32.056Z,13.00
2022-10-30T21:11:03.248Z,12.95
2022-10-30T21:13:34.290Z,12.96
2022-10-30T21:16:07.087Z,12.94
2022-10-30T21:18:34.960Z,12.92
2022-10-30T21:21:07.923Z,12.90
2022-10-30T21:23:35.570Z,12.85
2022-10-30T21:26:05.183Z,12.85
2022-10-30T21:28:32.657Z,12.79
2022-10-30T21:31:05.574Z,12.77
2022-10-30T21:33:34.938Z,12.42
2022-10-30T21:36:12.897Z,12.77
2022-10-30T21:38:42.106Z,12.70
2022-10-30T21:41:11.402Z,12.75
2022-10-30T21:43:38.810Z,12.75
2022-10-30T21:46:07.858Z,12.73
2022-10-30T21:48:35.411Z,12.75
2022-10-30T21:51:14.481Z,12.72
2022-10-30T21:53:42.479Z,12.70
2022-10-30T21:56:21.580Z,12.66
2022-10-30T21:58:49.566Z,12.63
2022-10-30T22:01:20.089Z,12.59
2022-10-30T22:03:47.945Z,12.58
2022-10-30T22:06:17.098Z,12.59
2022-10-30T22:08:49.086Z,12.57
2022-10-30T22:11:16.947Z,12.54
2022-10-30T22:13:44.864Z,12.55
2022-10-30T22:16:13.828Z,12.51
2022-10-30T22:18:41.786Z,12.48
2022-10-30T22:21:11.561Z,12.50
2022-10-30T22:23:40.267Z,12.48
2022-10-30T22:26:14.501Z,12.44
2022-10-30T22:28:43.044Z,12.38
2022-10-30T22:31:16.111Z,12.36
2022-10-30T22:33:44.223Z,12.35
2022-10-30T22:36:15.077Z,12.39
2022-10-30T22:38:42.535Z,12.34
2022-10-30T22:41:15.992Z,12.39
2022-10-30T22:43:45.268Z,12.33
2022-10-30T22:46:14.063Z,12.30
2022-10-30T22:48:41.613Z,12.22
2022-10-30T22:51:15.106Z,12.19
2022-10-30T22:53:46.051Z,12.12
2022-10-30T22:56:17.859Z,12.09
2022-10-30T22:58:46.850Z,12.14
2022-10-30T23:01:17.656Z,12.13
2022-10-30T23:03:45.948Z,12.07
2022-10-30T23:06:13.956Z,12.07
2022-10-30T23:08:41.970Z,12.03
2022-10-30T23:11:10.085Z,12.02
2022-10-30T23:13:37.767Z,12.00
2022-10-30T23:16:12.620Z,12.04
2022-10-30T23:18:40.076Z,12.03
2022-10-30T23:21:13.551Z,12.04
2022-10-30T23:23:42.220Z,11.99
2022-10-30T23:26:16.401Z,12.01
2022-10-30T23:28:44.812Z,12.00
2022-10-30T23:31:25.416Z,11.93
2022-10-30T23:33:55.119Z,11.93
2022-10-30T23:36:23.620Z,11.88
2022-10-30T23:39:17.639Z,11.87
2022-10-30T23:41:45.422Z,11.86
2022-10-30T23:44:14.764Z,11.86
2022-10-30T23:46:42.863Z,11.79
2022-10-30T23:49:10.339Z,11.78
2022-10-30T23:51:37.719Z,11.76
2022-10-30T23:54:05.415Z,11.78
2022-10-30T23:56:32.932Z,11.77
2022-10-30T23:59:01.053Z,11.37
